sensor_id;sensor_type;location;lat;lon;timestamp;temperature;humidity
3246;DHT22;1635;48.000;10.582;2022-11-27T00:00:37;20.70;99.90
3246;DHT22;1635;48.000;10.582;2022-11-27T00:06:09;21.90;99.90
3246;DHT22;1635;48.000;10.582;2022-11-27T00:09:01;21.70;99.90
3246;DHT22;1635;48.000;10.582;2022-11-27T00:15:47;21.20;99.90
3246;DHT22;1635;48.000;10.582;2022-11-27T00:36:49;21.30;99.90
3246;DHT22;1635;48.000;10.582;2022-11-27T00:39:17;21.00;99.90
3246;DHT22;1635;48.000;10.582;2022-11-27T00:41:46;20.80;99.90
3246;DHT22;1635;48.000;10.582;2022-11-27T01:07:57;20.80;99.90
3246;DHT22;1635;48.000;10.582;2022-11-27T01:17:57;23.20;99.90
3246;DHT22;1635;48.000;10.582;2022-11-27T01:20:22;22.80;99.90
3246;DHT22;1635;48.000;10.582;2022-11-27T01:22:49;23.00;99.90
3246;DHT22;1635;48.000;10.582;2022-11-27T01:25:15;21.60;99.90
3246;DHT22;1635;48.000;10.582;2022-11-27T01:27:41;21.00;99.90
3246;DHT22;1635;48.000;10.582;2022-11-27T01:30:09;20.30;99.90
3246;DHT22;1635;48.000;10.582;2022-11-27T01:37:54;21.30;99.90
3246;DHT22;1635;48.000;10.582;2022-11-27T01:40:21;22.20;99.90
3246;DHT22;1635;48.000;10.582;2022-11-27T01:42:49;22.20;99.90
3246;DHT22;1635;48.000;10.582;2022-11-27T01:45:18;22.10;99.90
3246;DHT22;1635;48.000;10.582;2022-11-27T01:47:57;21.90;99.90
3246;DHT22;1635;48.000;10.582;2022-11-27T01:50:34;21.70;99.90
3246;DHT22;1635;48.000;10.582;2022-11-27T01:53:12;21.60;99.90
3246;DHT22;1635;48.000;10.582;2022-11-27T01:55:54;21.40;99.90
3246;DHT22;1635;48.000;10.582;2022-11-27T01:58:25;21.30;99.90
3246;DHT22;1635;48.000;10.582;2022-11-27T02:00:53;21.20;99.90
3246;DHT22;1635;48.000;10.582;2022-11-27T02:03:20;21.10;99.90
3246;DHT22;1635;48.000;10.582;2022-11-27T02:05:47;21.10;99.90
3246;DHT22;1635;48.000;10.582;2022-11-27T02:08:16;21.00;99.90
3246;DHT22;1635;48.000;10.582;2022-11-27T02:10:52;21.00;99.90
3246;DHT22;1635;48.000;10.582;2022-11-27T02:13:38;20.90;99.90
3246;DHT22;1635;48.000;10.582;2022-11-27T02:16:28;20.80;99.90
3246;DHT22;1635;48.000;10.582;2022-11-27T02:19:13;20.80;99.90
3246;DHT22;1635;48.000;10.582;2022-11-27T02:21:48;20.80;99.90
3246;DHT22;1635;48.000;10.582;2022-11-27T02:30:05;20.70;99.90
3246;DHT22;1635;48.000;10.582;2022-11-27T02:32:56;20.60;99.90
3246;DHT22;1635;48.000;10.582;2022-11-27T02:35:31;20.60;99.90
3246;DHT22;1635;48.000;10.582;2022-11-27T02:38:16;20.60;99.90
3246;DHT22;1635;48.000;10.582;2022-11-27T02:40:55;20.50;99.90
3246;DHT22;1635;48.000;10.582;2022-11-27T02:43:35;20.50;99.90
3246;DHT22;1635;48.000;10.582;2022-11-27T02:46:04;20.50;99.90
3246;DHT22;1635;48.000;10.582;2022-11-27T02:48:40;20.50;99.90
3246;DHT22;1635;48.000;10.582;2022-11-27T02:51:08;20.50;99.90
3246;DHT22;1635;48.000;10.582;2022-11-27T02:53:45;20.40;99.90
3246;DHT22;1635;48.000;10.582;2022-11-27T02:56:17;20.40;99.90
3246;DHT22;1635;48.000;10.582;2022-11-27T02:58:45;20.40;99.90
3246;DHT22;1635;48.000;10.582;2022-11-27T03:01:13;20.40;99.90
3246;DHT22;1635;48.000;10.582;2022-11-27T03:03:47;20.40;99.90
3246;DHT22;1635;48.000;10.582;2022-11-27T03:06:21;20.40;99.90
3246;DHT22;1635;48.000;10.582;2022-11-27T03:08:59;20.40;99.90
3246;DHT22;1635;48.000;10.582;2022-11-27T03:11:28;20.30;99.90
3246;DHT22;1635;48.000;10.582;2022-11-27T03:14:00;20.30;99.90
3246;DHT22;1635;48.000;10.582;2022-11-27T03:19:56;20.30;99.90
3246;DHT22;1635;48.000;10.582;2022-11-27T03:22:38;20.30;99.90
3246;DHT22;1635;48.000;10.582;2022-11-27T03:25:12;20.30;99.90
3246;DHT22;1635;48.000;10.582;2022-11-27T03:28:02;20.30;99.90
3246;DHT22;1635;48.000;10.582;2022-11-27T03:30:43;20.30;99.90
3246;DHT22;1635;48.000;10.582;2022-11-27T03:33:11;20.20;99.90
3246;DHT22;1635;48.000;10.582;2022-11-27T03:35:36;20.20;99.90
3246;DHT22;1635;48.000;10.582;2022-11-27T03:38:03;20.30;99.90
3246;DHT22;1635;48.000;10.582;2022-11-27T03:40:42;20.30;99.90
3246;DHT22;1635;48.000;10.582;2022-11-27T03:43:13;20.20;99.90
3246;DHT22;1635;48.000;10.582;2022-11-27T03:46:00;20.20;99.90
3246;DHT22;1635;48.000;10.582;2022-11-27T03:49:02;20.20;99.90
3246;DHT22;1635;48.000;10.582;2022-11-27T03:51:39;20.20;99.90
3246;DHT22;1635;48.000;10.582;2022-11-27T03:54:33;20.20;99.90
3246;DHT22;1635;48.000;10.582;2022-11-27T03:59:42;20.10;99.90
3246;DHT22;1635;48.000;10.582;2022-11-27T04:02:15;20.20;99.90
3246;DHT22;1635;48.000;10.582;2022-11-27T04:04:43;20.20;99.90
3246;DHT22;1635;48.000;10.582;2022-11-27T04:07:15;20.20;99.90
3246;DHT22;1635;48.000;10.582;2022-11-27T04:09:43;20.10;99.90
3246;DHT22;1635;48.000;10.582;2022-11-27T04:12:09;20.10;99.90
3246;DHT22;1635;48.000;10.582;2022-11-27T04:14:36;20.10;99.90
3246;DHT22;1635;48.000;10.582;2022-11-27T04:17:03;20.10;99.90
3246;DHT22;1635;48.000;10.582;2022-11-27T04:19:30;20.10;99.90
3246;DHT22;1635;48.000;10.582;2022-11-27T04:21:57;20.10;99.90
3246;DHT22;1635;48.000;10.582;2022-11-27T04:24:24;20.10;99.90
3246;DHT22;1635;48.000;10.582;2022-11-27T04:26:51;20.10;99.90
3246;DHT22;1635;48.000;10.582;2022-11-27T04:29:18;20.10;99.90
3246;DHT22;1635;48.000;10.582;2022-11-27T04:31:45;20.10;99.90
3246;DHT22;1635;48.000;10.582;2022-11-27T04:34:11;20.20;99.90
3246;DHT22;1635;48.000;10.582;2022-11-27T04:36:38;20.10;99.90
3246;DHT22;1635;48.000;10.582;2022-11-27T04:39:05;20.10;99.90
3246;DHT22;1635;48.000;10.582;2022-11-27T04:41:32;20.10;99.90
3246;DHT22;1635;48.000;10.582;2022-11-27T04:43:59;20.10;99.90
3246;DHT22;1635;48.000;10.582;2022-11-27T04:46:26;20.10;99.90
3246;DHT22;1635;48.000;10.582;2022-11-27T04:48:53;20.10;99.90
3246;DHT22;1635;48.000;10.582;2022-11-27T04:51:20;20.10;99.90
3246;DHT22;1635;48.000;10.582;2022-11-27T04:53:47;20.10;99.90
3246;DHT22;1635;48.000;10.582;2022-11-27T04:56:14;20.00;99.90
3246;DHT22;1635;48.000;10.582;2022-11-27T04:58:40;20.00;99.90
3246;DHT22;1635;48.000;10.582;2022-11-27T05:01:10;20.00;99.90
3246;DHT22;1635;48.000;10.582;2022-11-27T05:03:37;20.00;99.90
3246;DHT22;1635;48.000;10.582;2022-11-27T05:06:04;20.00;99.90
3246;DHT22;1635;48.000;10.582;2022-11-27T05:08:32;20.00;99.90
3246;DHT22;1635;48.000;10.582;2022-11-27T05:11:05;20.00;99.90
3246;DHT22;1635;48.000;10.582;2022-11-27T05:13:32;20.00;99.90
3246;DHT22;1635;48.000;10.582;2022-11-27T05:16:00;20.00;99.90
3246;DHT22;1635;48.000;10.582;2022-11-27T05:18:26;20.00;99.90
3246;DHT22;1635;48.000;10.582;2022-11-27T05:21:02;20.00;99.90
3246;DHT22;1635;48.000;10.582;2022-11-27T05:23:30;20.00;99.90
3246;DHT22;1635;48.000;10.582;2022-11-27T05:25:57;20.00;99.90
3246;DHT22;1635;48.000;10.582;2022-11-27T05:28:25;20.00;99.90
3246;DHT22;1635;48.000;10.582;2022-11-27T05:30:51;20.00;99.90
3246;DHT22;1635;48.000;10.582;2022-11-27T05:33:18;20.00;99.90
3246;DHT22;1635;48.000;10.582;2022-11-27T05:35:44;20.00;99.90
3246;DHT22;1635;48.000;10.582;2022-11-27T05:38:11;20.00;99.90
3246;DHT22;1635;48.000;10.582;2022-11-27T05:40:38;20.00;99.90
3246;DHT22;1635;48.000;10.582;2022-11-27T05:43:05;20.00;99.90
3246;DHT22;1635;48.000;10.582;2022-11-27T05:45:32;20.00;99.90
3246;DHT22;1635;48.000;10.582;2022-11-27T05:47:59;20.00;99.90
3246;DHT22;1635;48.000;10.582;2022-11-27T05:50:26;19.90;99.90
3246;DHT22;1635;48.000;10.582;2022-11-27T05:52:53;19.90;99.90
3246;DHT22;1635;48.000;10.582;2022-11-27T05:55:20;20.00;99.90
3246;DHT22;1635;48.000;10.582;2022-11-27T05:57:46;20.00;99.90
3246;DHT22;1635;48.000;10.582;2022-11-27T06:00:14;19.90;99.90
3246;DHT22;1635;48.000;10.582;2022-11-27T06:02:41;19.90;99.90
3246;DHT22;1635;48.000;10.582;2022-11-27T06:05:08;19.90;99.90
3246;DHT22;1635;48.000;10.582;2022-11-27T06:07:34;19.90;99.90
3246;DHT22;1635;48.000;10.582;2022-11-27T06:10:01;19.90;99.90
3246;DHT22;1635;48.000;10.582;2022-11-27T06:12:31;19.90;99.90
3246;DHT22;1635;48.000;10.582;2022-11-27T06:14:57;19.90;99.90
3246;DHT22;1635;48.000;10.582;2022-11-27T06:17:25;19.90;99.90
3246;DHT22;1635;48.000;10.582;2022-11-27T06:19:51;19.90;99.90
3246;DHT22;1635;48.000;10.582;2022-11-27T06:22:18;19.90;99.90
3246;DHT22;1635;48.000;10.582;2022-11-27T06:24:45;19.90;99.90
3246;DHT22;1635;48.000;10.582;2022-11-27T06:27:12;19.90;99.90
3246;DHT22;1635;48.000;10.582;2022-11-27T06:29:39;19.90;99.90
3246;DHT22;1635;48.000;10.582;2022-11-27T06:32:06;19.90;99.90
3246;DHT22;1635;48.000;10.582;2022-11-27T06:34:33;19.90;99.90
3246;DHT22;1635;48.000;10.582;2022-11-27T06:37:00;19.90;99.90
3246;DHT22;1635;48.000;10.582;2022-11-27T06:39:27;19.90;99.90
3246;DHT22;1635;48.000;10.582;2022-11-27T06:41:54;19.90;99.90
3246;DHT22;1635;48.000;10.582;2022-11-27T06:44:21;19.90;99.90
3246;DHT22;1635;48.000;10.582;2022-11-27T06:46:48;19.90;99.90
3246;DHT22;1635;48.000;10.582;2022-11-27T06:49:16;19.90;99.90
3246;DHT22;1635;48.000;10.582;2022-11-27T06:51:42;19.90;99.90
3246;DHT22;1635;48.000;10.582;2022-11-27T06:54:09;19.90;99.90
3246;DHT22;1635;48.000;10.582;2022-11-27T06:56:36;19.90;99.90
3246;DHT22;1635;48.000;10.582;2022-11-27T06:59:03;19.90;99.90
3246;DHT22;1635;48.000;10.582;2022-11-27T07:01:30;19.90;99.90
3246;DHT22;1635;48.000;10.582;2022-11-27T07:03:58;19.90;99.90
3246;DHT22;1635;48.000;10.582;2022-11-27T07:06:26;19.90;99.90
3246;DHT22;1635;48.000;10.582;2022-11-27T07:08:54;19.90;99.90
3246;DHT22;1635;48.000;10.582;2022-11-27T07:11:23;19.90;99.90
3246;DHT22;1635;48.000;10.582;2022-11-27T07:13:52;19.90;99.90
3246;DHT22;1635;48.000;10.582;2022-11-27T07:16:20;19.90;99.90
3246;DHT22;1635;48.000;10.582;2022-11-27T07:18:50;20.00;99.90
3246;DHT22;1635;48.000;10.582;2022-11-27T07:21:18;19.90;99.90
3246;DHT22;1635;48.000;10.582;2022-11-27T07:23:45;19.90;99.90
3246;DHT22;1635;48.000;10.582;2022-11-27T07:26:19;19.90;99.90
3246;DHT22;1635;48.000;10.582;2022-11-27T07:28:47;19.80;99.90
3246;DHT22;1635;48.000;10.582;2022-11-27T07:31:19;19.90;99.90
3246;DHT22;1635;48.000;10.582;2022-11-27T07:33:46;19.90;99.90
3246;DHT22;1635;48.000;10.582;2022-11-27T07:36:13;19.90;99.90
3246;DHT22;1635;48.000;10.582;2022-11-27T07:38:40;19.90;99.90
3246;DHT22;1635;48.000;10.582;2022-11-27T07:41:08;19.80;99.90
3246;DHT22;1635;48.000;10.582;2022-11-27T07:43:36;19.80;99.90
3246;DHT22;1635;48.000;10.582;2022-11-27T07:46:09;19.80;99.90
3246;DHT22;1635;48.000;10.582;2022-11-27T07:48:36;19.80;99.90
3246;DHT22;1635;48.000;10.582;2022-11-27T07:51:07;19.90;99.90
3246;DHT22;1635;48.000;10.582;2022-11-27T07:53:39;19.80;99.90
3246;DHT22;1635;48.000;10.582;2022-11-27T07:56:07;19.80;99.90
3246;DHT22;1635;48.000;10.582;2022-11-27T07:58:35;19.90;99.90
3246;DHT22;1635;48.000;10.582;2022-11-27T08:01:06;19.80;99.90
3246;DHT22;1635;48.000;10.582;2022-11-27T08:03:33;19.80;99.90
3246;DHT22;1635;48.000;10.582;2022-11-27T08:06:00;19.80;99.90
3246;DHT22;1635;48.000;10.582;2022-11-27T08:08:31;19.80;99.90
3246;DHT22;1635;48.000;10.582;2022-11-27T08:10:57;19.80;99.90
3246;DHT22;1635;48.000;10.582;2022-11-27T08:13:24;19.80;99.90
3246;DHT22;1635;48.000;10.582;2022-11-27T08:15:51;19.80;99.90
3246;DHT22;1635;48.000;10.582;2022-11-27T08:18:18;19.80;99.90
3246;DHT22;1635;48.000;10.582;2022-11-27T08:20:45;19.80;99.90
3246;DHT22;1635;48.000;10.582;2022-11-27T08:23:12;19.80;99.90
3246;DHT22;1635;48.000;10.582;2022-11-27T08:25:39;19.80;99.90
3246;DHT22;1635;48.000;10.582;2022-11-27T08:28:06;19.80;99.90
3246;DHT22;1635;48.000;10.582;2022-11-27T08:30:32;19.80;99.90
3246;DHT22;1635;48.000;10.582;2022-11-27T08:32:59;19.80;99.90
3246;DHT22;1635;48.000;10.582;2022-11-27T08:35:26;19.80;99.90
3246;DHT22;1635;48.000;10.582;2022-11-27T08:37:53;19.90;99.90
3246;DHT22;1635;48.000;10.582;2022-11-27T08:40:20;19.80;99.90
3246;DHT22;1635;48.000;10.582;2022-11-27T08:42:47;19.80;99.90
3246;DHT22;1635;48.000;10.582;2022-11-27T08:45:14;18.40;95.30
3246;DHT22;1635;48.000;10.582;2022-11-27T08:47:41;15.90;94.50
3246;DHT22;1635;48.000;10.582;2022-11-27T08:50:09;14.90;95.00
3246;DHT22;1635;48.000;10.582;2022-11-27T08:52:36;15.10;94.30
3246;DHT22;1635;48.000;10.582;2022-11-27T08:55:03;15.30;93.60
3246;DHT22;1635;48.000;10.582;2022-11-27T08:57:30;15.40;93.30
3246;DHT22;1635;48.000;10.582;2022-11-27T08:59:57;15.20;93.00
3246;DHT22;1635;48.000;10.582;2022-11-27T09:02:24;15.00;92.60
3246;DHT22;1635;48.000;10.582;2022-11-27T09:04:51;13.90;93.50
3246;DHT22;1635;48.000;10.582;2022-11-27T09:07:18;12.00;96.60
3246;DHT22;1635;48.000;10.582;2022-11-27T09:09:45;10.90;99.10
3246;DHT22;1635;48.000;10.582;2022-11-27T09:12:11;10.10;99.90
3246;DHT22;1635;48.000;10.582;2022-11-27T09:14:38;9.70;99.90
3246;DHT22;1635;48.000;10.582;2022-11-27T09:17:05;10.30;99.90
3246;DHT22;1635;48.000;10.582;2022-11-27T09:19:33;11.30;99.90
3246;DHT22;1635;48.000;10.582;2022-11-27T09:22:00;12.20;99.90
3246;DHT22;1635;48.000;10.582;2022-11-27T09:24:30;12.90;99.90
3246;DHT22;1635;48.000;10.582;2022-11-27T09:26:56;13.10;99.90
3246;DHT22;1635;48.000;10.582;2022-11-27T09:29:23;13.60;99.90
3246;DHT22;1635;48.000;10.582;2022-11-27T09:31:50;14.00;99.90
3246;DHT22;1635;48.000;10.582;2022-11-27T09:34:17;14.40;99.90
3246;DHT22;1635;48.000;10.582;2022-11-27T09:36:44;14.70;99.90
3246;DHT22;1635;48.000;10.582;2022-11-27T09:39:10;15.10;99.90
3246;DHT22;1635;48.000;10.582;2022-11-27T09:41:45;15.40;99.90
3246;DHT22;1635;48.000;10.582;2022-11-27T09:46:59;15.70;99.90
3246;DHT22;1635;48.000;10.582;2022-11-27T09:57:52;21.40;99.90
3246;DHT22;1635;48.000;10.582;2022-11-27T10:00:21;24.20;99.90
3246;DHT22;1635;48.000;10.582;2022-11-27T10:02:48;21.50;99.90
3246;DHT22;1635;48.000;10.582;2022-11-27T10:05:31;19.60;99.90
3246;DHT22;1635;48.000;10.582;2022-11-27T10:08:10;18.90;99.90
3246;DHT22;1635;48.000;10.582;2022-11-27T10:10:58;18.70;99.90
3246;DHT22;1635;48.000;10.582;2022-11-27T10:13:50;18.70;99.90
3246;DHT22;1635;48.000;10.582;2022-11-27T10:18:56;18.60;99.90
3246;DHT22;1635;48.000;10.582;2022-11-27T10:21:48;18.60;99.90
3246;DHT22;1635;48.000;10.582;2022-11-27T10:24:30;18.70;99.90
3246;DHT22;1635;48.000;10.582;2022-11-27T10:27:11;18.70;99.90
3246;DHT22;1635;48.000;10.582;2022-11-27T10:29:44;18.80;99.90
3246;DHT22;1635;48.000;10.582;2022-11-27T10:32:18;18.80;99.90
3246;DHT22;1635;48.000;10.582;2022-11-27T10:35:03;18.80;99.90
3246;DHT22;1635;48.000;10.582;2022-11-27T10:37:38;18.80;99.90
3246;DHT22;1635;48.000;10.582;2022-11-27T10:48:12;18.90;99.90
3246;DHT22;1635;48.000;10.582;2022-11-27T10:50:40;19.00;99.90
3246;DHT22;1635;48.000;10.582;2022-11-27T10:53:28;19.00;99.90
3246;DHT22;1635;48.000;10.582;2022-11-27T10:59:00;19.00;99.90
3246;DHT22;1635;48.000;10.582;2022-11-27T11:01:44;19.20;99.90
3246;DHT22;1635;48.000;10.582;2022-11-27T11:04:13;19.20;99.90
3246;DHT22;1635;48.000;10.582;2022-11-27T11:06:48;19.20;99.90
3246;DHT22;1635;48.000;10.582;2022-11-27T11:11:52;19.20;99.90
3246;DHT22;1635;48.000;10.582;2022-11-27T11:14:25;19.30;99.90
3246;DHT22;1635;48.000;10.582;2022-11-27T11:16:53;19.10;99.90
3246;DHT22;1635;48.000;10.582;2022-11-27T11:19:33;19.10;99.90
3246;DHT22;1635;48.000;10.582;2022-11-27T11:22:16;19.00;99.90
3246;DHT22;1635;48.000;10.582;2022-11-27T11:24:48;18.90;99.90
3246;DHT22;1635;48.000;10.582;2022-11-27T11:27:36;18.90;99.90
3246;DHT22;1635;48.000;10.582;2022-11-27T11:30:23;18.90;99.90
3246;DHT22;1635;48.000;10.582;2022-11-27T11:32:57;18.90;99.90
3246;DHT22;1635;48.000;10.582;2022-11-27T11:35:34;18.80;99.90
3246;DHT22;1635;48.000;10.582;2022-11-27T11:38:02;18.70;99.90
3246;DHT22;1635;48.000;10.582;2022-11-27T11:40:31;18.70;99.90
3246;DHT22;1635;48.000;10.582;2022-11-27T11:43:19;18.70;99.90
3246;DHT22;1635;48.000;10.582;2022-11-27T11:45:49;18.70;99.90
3246;DHT22;1635;48.000;10.582;2022-11-27T11:48:26;18.70;99.90
3246;DHT22;1635;48.000;10.582;2022-11-27T11:51:13;18.60;99.90
3246;DHT22;1635;48.000;10.582;2022-11-27T11:53:44;18.60;99.90
3246;DHT22;1635;48.000;10.582;2022-11-27T11:56:27;18.60;99.90
3246;DHT22;1635;48.000;10.582;2022-11-27T11:59:22;18.60;99.90
3246;DHT22;1635;48.000;10.582;2022-11-27T12:05:03;18.40;99.90
3246;DHT22;1635;48.000;10.582;2022-11-27T12:13:56;18.40;99.90
3246;DHT22;1635;48.000;10.582;2022-11-27T12:16:56;18.40;99.90
3246;DHT22;1635;48.000;10.582;2022-11-27T12:26:00;18.30;99.90
3246;DHT22;1635;48.000;10.582;2022-11-27T12:37:25;18.20;99.90
3246;DHT22;1635;48.000;10.582;2022-11-27T12:43:19;18.20;99.90
3246;DHT22;1635;48.000;10.582;2022-11-27T12:51:03;18.30;99.90
3246;DHT22;1635;48.000;10.582;2022-11-27T12:54:00;18.40;99.90
3246;DHT22;1635;48.000;10.582;2022-11-27T12:56:50;18.50;99.90
3246;DHT22;1635;48.000;10.582;2022-11-27T13:00:17;18.50;99.90
3246;DHT22;1635;48.000;10.582;2022-11-27T13:05:36;18.60;99.90
3246;DHT22;1635;48.000;10.582;2022-11-27T13:08:12;18.60;99.90
3246;DHT22;1635;48.000;10.582;2022-11-27T13:10:48;18.60;99.90
3246;DHT22;1635;48.000;10.582;2022-11-27T13:13:42;18.60;99.90
3246;DHT22;1635;48.000;10.582;2022-11-27T13:16:22;18.60;99.90
3246;DHT22;1635;48.000;10.582;2022-11-27T13:18:58;18.60;99.90
3246;DHT22;1635;48.000;10.582;2022-11-27T13:21:32;18.60;99.90
3246;DHT22;1635;48.000;10.582;2022-11-27T13:24:02;18.60;99.90
3246;DHT22;1635;48.000;10.582;2022-11-27T13:26:45;18.60;99.90
3246;DHT22;1635;48.000;10.582;2022-11-27T13:32:23;18.70;99.90
3246;DHT22;1635;48.000;10.582;2022-11-27T13:34:51;18.60;99.90
3246;DHT22;1635;48.000;10.582;2022-11-27T13:37:33;18.60;99.90
3246;DHT22;1635;48.000;10.582;2022-11-27T13:42:42;18.70;99.90
3246;DHT22;1635;48.000;10.582;2022-11-27T13:45:20;18.70;99.90
3246;DHT22;1635;48.000;10.582;2022-11-27T13:47:48;18.70;99.90
3246;DHT22;1635;48.000;10.582;2022-11-27T13:50:19;18.70;99.90
3246;DHT22;1635;48.000;10.582;2022-11-27T13:52:59;18.70;99.90
3246;DHT22;1635;48.000;10.582;2022-11-27T13:55:37;18.70;99.90
3246;DHT22;1635;48.000;10.582;2022-11-27T13:58:06;18.70;99.90
3246;DHT22;1635;48.000;10.582;2022-11-27T14:00:43;18.70;99.90
3246;DHT22;1635;48.000;10.582;2022-11-27T14:03:25;18.70;99.90
3246;DHT22;1635;48.000;10.582;2022-11-27T14:05:52;18.70;99.90
3246;DHT22;1635;48.000;10.582;2022-11-27T14:08:27;18.70;99.90
3246;DHT22;1635;48.000;10.582;2022-11-27T14:11:06;18.70;99.90
3246;DHT22;1635;48.000;10.582;2022-11-27T14:13:50;18.70;99.90
3246;DHT22;1635;48.000;10.582;2022-11-27T14:16:31;18.60;99.90
3246;DHT22;1635;48.000;10.582;2022-11-27T14:19:01;18.70;99.90
3246;DHT22;1635;48.000;10.582;2022-11-27T14:21:40;18.60;99.90
3246;DHT22;1635;48.000;10.582;2022-11-27T14:24:36;18.60;99.90
3246;DHT22;1635;48.000;10.582;2022-11-27T14:27:21;18.60;99.90
3246;DHT22;1635;48.000;10.582;2022-11-27T14:29:49;18.60;99.90
3246;DHT22;1635;48.000;10.582;2022-11-27T14:32:17;18.70;99.90
3246;DHT22;1635;48.000;10.582;2022-11-27T14:34:45;18.60;99.90
3246;DHT22;1635;48.000;10.582;2022-11-27T14:37:25;18.60;99.90
3246;DHT22;1635;48.000;10.582;2022-11-27T14:39:53;18.60;99.90
3246;DHT22;1635;48.000;10.582;2022-11-27T14:42:25;18.60;99.90
3246;DHT22;1635;48.000;10.582;2022-11-27T14:45:07;18.60;99.90
3246;DHT22;1635;48.000;10.582;2022-11-27T14:47:34;18.60;99.90
3246;DHT22;1635;48.000;10.582;2022-11-27T14:50:01;18.60;99.90
3246;DHT22;1635;48.000;10.582;2022-11-27T14:52:29;18.60;99.90
3246;DHT22;1635;48.000;10.582;2022-11-27T14:54:57;18.60;99.90
3246;DHT22;1635;48.000;10.582;2022-11-27T14:57:26;18.60;99.90
3246;DHT22;1635;48.000;10.582;2022-11-27T15:00:18;18.60;99.90
3246;DHT22;1635;48.000;10.582;2022-11-27T15:02:47;18.60;99.90
3246;DHT22;1635;48.000;10.582;2022-11-27T15:05:26;18.60;99.90
3246;DHT22;1635;48.000;10.582;2022-11-27T15:07:57;18.60;99.90
3246;DHT22;1635;48.000;10.582;2022-11-27T15:10:37;18.60;99.90
3246;DHT22;1635;48.000;10.582;2022-11-27T15:13:06;18.60;99.90
3246;DHT22;1635;48.000;10.582;2022-11-27T15:15:40;18.60;99.90
3246;DHT22;1635;48.000;10.582;2022-11-27T15:18:19;18.60;99.90
3246;DHT22;1635;48.000;10.582;2022-11-27T15:20:47;18.60;99.90
3246;DHT22;1635;48.000;10.582;2022-11-27T15:23:21;18.60;99.90
3246;DHT22;1635;48.000;10.582;2022-11-27T15:28:39;18.60;99.90
3246;DHT22;1635;48.000;10.582;2022-11-27T15:31:25;18.50;99.90
3246;DHT22;1635;48.000;10.582;2022-11-27T15:36:42;18.50;99.90
3246;DHT22;1635;48.000;10.582;2022-11-27T15:39:51;18.60;99.90
3246;DHT22;1635;48.000;10.582;2022-11-27T15:42:18;18.50;99.90
3246;DHT22;1635;48.000;10.582;2022-11-27T15:44:48;18.50;99.90
3246;DHT22;1635;48.000;10.582;2022-11-27T15:49:48;18.50;99.90
3246;DHT22;1635;48.000;10.582;2022-11-27T15:52:15;18.50;99.90
3246;DHT22;1635;48.000;10.582;2022-11-27T15:54:42;18.60;99.90
3246;DHT22;1635;48.000;10.582;2022-11-27T15:57:09;18.50;99.90
3246;DHT22;1635;48.000;10.582;2022-11-27T15:59:36;18.60;99.90
3246;DHT22;1635;48.000;10.582;2022-11-27T16:02:04;18.60;99.90
3246;DHT22;1635;48.000;10.582;2022-11-27T16:04:31;18.70;99.90
3246;DHT22;1635;48.000;10.582;2022-11-27T16:06:58;18.80;99.90
3246;DHT22;1635;48.000;10.582;2022-11-27T16:09:25;18.90;99.90
3246;DHT22;1635;48.000;10.582;2022-11-27T16:11:52;19.20;99.90
3246;DHT22;1635;48.000;10.582;2022-11-27T16:14:19;19.30;99.90
3246;DHT22;1635;48.000;10.582;2022-11-27T16:16:44;19.40;99.90
3246;DHT22;1635;48.000;10.582;2022-11-27T16:19:12;19.50;99.90
3246;DHT22;1635;48.000;10.582;2022-11-27T16:43:15;22.00;99.90
3246;DHT22;1635;48.000;10.582;2022-11-27T16:45:42;20.80;99.90
3246;DHT22;1635;48.000;10.582;2022-11-27T16:48:08;20.30;99.90
3246;DHT22;1635;48.000;10.582;2022-11-27T16:50:35;20.90;99.90
3246;DHT22;1635;48.000;10.582;2022-11-27T16:53:01;20.30;99.90
3246;DHT22;1635;48.000;10.582;2022-11-27T16:55:30;20.00;99.90
3246;DHT22;1635;48.000;10.582;2022-11-27T16:57:58;19.80;99.90
3246;DHT22;1635;48.000;10.582;2022-11-27T17:00:25;19.80;99.90
3246;DHT22;1635;48.000;10.582;2022-11-27T17:02:53;19.70;99.90
3246;DHT22;1635;48.000;10.582;2022-11-27T17:05:20;19.70;99.90
3246;DHT22;1635;48.000;10.582;2022-11-27T17:07:47;19.60;99.90
3246;DHT22;1635;48.000;10.582;2022-11-27T17:14:08;19.70;99.90
3246;DHT22;1635;48.000;10.582;2022-11-27T17:16:36;20.20;99.90
3246;DHT22;1635;48.000;10.582;2022-11-27T17:19:05;20.40;99.90
3246;DHT22;1635;48.000;10.582;2022-11-27T17:21:34;20.50;99.90
3246;DHT22;1635;48.000;10.582;2022-11-27T17:24:03;20.60;99.90
3246;DHT22;1635;48.000;10.582;2022-11-27T17:26:34;20.60;99.90
3246;DHT22;1635;48.000;10.582;2022-11-27T17:29:04;20.60;99.90
3246;DHT22;1635;48.000;10.582;2022-11-27T17:31:31;20.50;99.90
3246;DHT22;1635;48.000;10.582;2022-11-27T17:33:59;20.50;99.90
3246;DHT22;1635;48.000;10.582;2022-11-27T17:36:29;20.40;99.90
3246;DHT22;1635;48.000;10.582;2022-11-27T17:38:56;20.30;99.90
3246;DHT22;1635;48.000;10.582;2022-11-27T17:41:23;20.40;99.90
3246;DHT22;1635;48.000;10.582;2022-11-27T17:43:50;20.30;99.90
3246;DHT22;1635;48.000;10.582;2022-11-27T17:46:19;20.30;99.90
3246;DHT22;1635;48.000;10.582;2022-11-27T17:48:49;20.30;99.90
3246;DHT22;1635;48.000;10.582;2022-11-27T17:51:17;20.20;99.90
3246;DHT22;1635;48.000;10.582;2022-11-27T17:53:45;20.20;99.90
3246;DHT22;1635;48.000;10.582;2022-11-27T17:56:15;20.10;99.90
3246;DHT22;1635;48.000;10.582;2022-11-27T17:58:43;20.10;99.90
3246;DHT22;1635;48.000;10.582;2022-11-27T18:01:15;20.10;99.90
3246;DHT22;1635;48.000;10.582;2022-11-27T18:03:43;20.10;99.90
3246;DHT22;1635;48.000;10.582;2022-11-27T18:06:15;20.10;99.90
3246;DHT22;1635;48.000;10.582;2022-11-27T18:08:43;20.00;99.90
3246;DHT22;1635;48.000;10.582;2022-11-27T18:11:16;20.10;99.90
3246;DHT22;1635;48.000;10.582;2022-11-27T18:13:43;20.10;99.90
3246;DHT22;1635;48.000;10.582;2022-11-27T18:16:14;20.00;99.90
3246;DHT22;1635;48.000;10.582;2022-11-27T18:18:42;19.90;99.90
3246;DHT22;1635;48.000;10.582;2022-11-27T18:21:15;19.90;99.90
3246;DHT22;1635;48.000;10.582;2022-11-27T18:23:42;19.80;99.90
3246;DHT22;1635;48.000;10.582;2022-11-27T18:26:14;19.80;99.90
3246;DHT22;1635;48.000;10.582;2022-11-27T18:28:41;19.80;99.90
3246;DHT22;1635;48.000;10.582;2022-11-27T18:31:15;19.70;99.90
3246;DHT22;1635;48.000;10.582;2022-11-27T18:33:43;19.70;99.90
3246;DHT22;1635;48.000;10.582;2022-11-27T18:36:11;19.60;99.90
3246;DHT22;1635;48.000;10.582;2022-11-27T18:38:39;19.60;99.90
3246;DHT22;1635;48.000;10.582;2022-11-27T18:41:21;19.60;99.90
3246;DHT22;1635;48.000;10.582;2022-11-27T18:43:50;19.50;99.90
3246;DHT22;1635;48.000;10.582;2022-11-27T18:46:20;19.50;99.90
3246;DHT22;1635;48.000;10.582;2022-11-27T18:48:48;19.50;99.90
3246;DHT22;1635;48.000;10.582;2022-11-27T18:51:20;19.40;99.90
3246;DHT22;1635;48.000;10.582;2022-11-27T18:53:48;19.40;99.90
3246;DHT22;1635;48.000;10.582;2022-11-27T18:56:20;19.40;99.90
3246;DHT22;1635;48.000;10.582;2022-11-27T18:58:48;19.40;99.90
3246;DHT22;1635;48.000;10.582;2022-11-27T19:01:21;19.30;99.90
3246;DHT22;1635;48.000;10.582;2022-11-27T19:03:49;19.30;99.90
3246;DHT22;1635;48.000;10.582;2022-11-27T19:06:18;19.30;99.90
3246;DHT22;1635;48.000;10.582;2022-11-27T19:08:46;19.30;99.90